CheckWX is a tool to help pilots better visualize weather data.  It is not intended as a substitute for an official pre-flight weather briefing.

20:32:49 UTC

ESGJ METAR
Jönköping Airport
Jönköping, Sweden
Current

13 mins ago

ESGJ 182020Z 20009KT 8000 BR FEW010 BKN016 BKN019 06/05 Q1010 R19/09//70
Observed
Feb-18 @ 20:20 UTC
Wind
  • 200° at 9 KTS
Visibility
7,998 meters
Flight Rules
MVFR
Conditions
Mist
Cloud Levels
  • Few at 1,000' AGL
  • Broken at 1,600' AGL
  • Broken at 1,900' AGL
Temperature
C / 43°F
Dewpoint
C / 41°F
Humidity
93%
Altimeter
29.82" Hg
Pressure
1009.92 hPa
Previous

43 mins ago

ESGJ 181950Z 21010KT 8000 BR FEW011 BKN014 BKN020 06/05 Q1010 R19/09//70
Observed
Feb-18 @ 19:50 UTC
Wind
  • 210° at 10 KTS
Visibility
7,998 meters
Flight Rules
MVFR
Conditions
Mist
Cloud Levels
  • Few at 1,100' AGL
  • Broken at 1,400' AGL
  • Broken at 2,000' AGL
Temperature
C / 43°F
Dewpoint
C / 41°F
Humidity
93%
Altimeter
29.82" Hg
Pressure
1009.92 hPa
Previous

1 hour ago

ESGJ 181920Z 21009KT 9000 BKN023 06/04 Q1010 R19/09//70
Observed
Feb-18 @ 19:20 UTC
Wind
  • 210° at 9 KTS
Visibility
8,996 meters
Flight Rules
MVFR
Cloud Levels
  • Broken at 2,300' AGL
Temperature
C / 43°F
Dewpoint
C / 39°F
Humidity
87%
Altimeter
29.82" Hg
Pressure
1009.92 hPa